createdAt,value
2023-11-21T00:00:13.104Z,6.40
2023-11-21T00:02:42.135Z,6.40
2023-11-21T00:05:12.419Z,6.50
2023-11-21T00:07:40.528Z,6.50
2023-11-21T00:10:10.096Z,6.50
2023-11-21T00:12:38.305Z,6.50
2023-11-21T00:15:10.471Z,6.50
2023-11-21T00:17:38.641Z,6.50
2023-11-21T00:20:08.498Z,6.50
2023-11-21T00:22:38.066Z,6.50
2023-11-21T00:25:06.936Z,6.40
2023-11-21T00:27:36.145Z,6.40
2023-11-21T00:30:06.477Z,6.30
2023-11-21T00:32:35.020Z,6.30
2023-11-21T00:35:03.102Z,6.30
2023-11-21T00:37:33.196Z,6.40
2023-11-21T00:40:05.924Z,6.40
2023-11-21T00:42:34.897Z,6.40
2023-11-21T00:45:03.009Z,6.30
2023-11-21T00:47:31.185Z,6.30
2023-11-21T00:49:59.204Z,6.30
2023-11-21T00:52:27.206Z,6.30
2023-11-21T00:54:55.224Z,6.30
2023-11-21T00:57:24.479Z,6.30
2023-11-21T00:59:52.453Z,6.30
2023-11-21T01:02:20.568Z,6.30
2023-11-21T01:04:48.938Z,6.30
2023-11-21T01:07:17.335Z,6.30
2023-11-21T01:09:45.411Z,6.30
2023-11-21T01:12:13.398Z,6.30
2023-11-21T01:14:42.957Z,6.30
2023-11-21T01:17:10.997Z,6.20
2023-11-21T01:19:39.577Z,6.30
2023-11-21T01:22:07.539Z,6.30
2023-11-21T01:24:35.429Z,6.40
2023-11-21T01:27:03.505Z,6.30
2023-11-21T01:29:31.435Z,6.30
2023-11-21T01:32:00.753Z,6.30
2023-11-21T01:34:28.749Z,6.30
2023-11-21T01:36:57.283Z,6.10
2023-11-21T01:39:25.635Z,5.90
2023-11-21T01:41:54.026Z,5.90
2023-11-21T01:44:21.959Z,6.00
2023-11-21T01:46:50.409Z,6.10
2023-11-21T01:49:21.883Z,6.10
2023-11-21T01:51:51.670Z,6.10
2023-11-21T01:54:21.142Z,6.00
2023-11-21T01:56:49.663Z,6.00
2023-11-21T01:59:24.419Z,6.00
2023-11-21T02:01:52.547Z,6.10
2023-11-21T02:04:22.395Z,6.10
2023-11-21T02:06:51.995Z,6.10
2023-11-21T02:09:26.936Z,6.10
2023-11-21T02:11:58.250Z,6.10
2023-11-21T02:14:27.950Z,6.10
2023-11-21T02:16:58.286Z,6.10
2023-11-21T02:19:27.811Z,6.00
2023-11-21T02:21:56.047Z,6.00
2023-11-21T02:24:25.964Z,5.90
2023-11-21T02:26:54.097Z,5.90
2023-11-21T02:29:23.217Z,6.00
2023-11-21T02:31:56.113Z,6.00
2023-11-21T02:34:26.308Z,6.00
2023-11-21T02:36:55.208Z,5.90
2023-11-21T02:39:24.819Z,5.90
2023-11-21T02:41:54.458Z,5.90
2023-11-21T02:44:22.537Z,5.90
2023-11-21T02:46:50.573Z,5.90
2023-11-21T02:49:18.668Z,5.90
2023-11-21T02:51:46.610Z,5.90
2023-11-21T02:54:14.988Z,5.90
2023-11-21T02:56:43.673Z,5.90
2023-11-21T02:59:12.920Z,5.90
2023-11-21T03:01:40.926Z,5.80
2023-11-21T03:04:08.933Z,5.80
2023-11-21T03:06:36.890Z,5.90
2023-11-21T03:09:05.286Z,5.80
2023-11-21T03:11:33.482Z,5.80
2023-11-21T03:14:01.382Z,5.80
2023-11-21T03:16:32.356Z,5.80
2023-11-21T03:19:00.856Z,5.80
2023-11-21T03:21:28.825Z,5.80
2023-11-21T03:23:56.751Z,5.80
2023-11-21T03:26:24.663Z,5.70
2023-11-21T03:28:54.620Z,5.60
2023-11-21T03:31:22.630Z,5.60
2023-11-21T03:33:51.946Z,5.60
2023-11-21T03:36:19.943Z,5.60
2023-11-21T03:38:47.911Z,5.60
2023-11-21T03:41:16.211Z,5.60
2023-11-21T03:43:44.174Z,5.50
2023-11-21T03:46:13.375Z,5.50
2023-11-21T03:48:41.611Z,5.50
2023-11-21T03:51:10.912Z,5.40
2023-11-21T03:53:39.064Z,5.40
2023-11-21T03:56:07.883Z,5.30
2023-11-21T03:58:35.832Z,5.30
2023-11-21T04:01:03.828Z,5.30
2023-11-21T04:03:32.056Z,5.10
2023-11-21T04:06:00.533Z,5.20
2023-11-21T04:08:29.795Z,5.30
2023-11-21T04:10:57.772Z,5.40
2023-11-21T04:13:25.787Z,5.30
2023-11-21T04:15:53.905Z,5.30
2023-11-21T04:18:21.851Z,5.30
2023-11-21T04:20:51.534Z,5.30
2023-11-21T04:23:19.466Z,5.20
2023-11-21T04:25:48.759Z,5.30
2023-11-21T04:28:16.722Z,5.30
2023-11-21T04:30:44.857Z,5.30
2023-11-21T04:33:13.255Z,5.30
2023-11-21T04:35:41.170Z,5.30
2023-11-21T04:38:09.090Z,5.30
2023-11-21T04:40:37.043Z,5.20
2023-11-21T04:43:06.361Z,5.30
2023-11-21T04:45:34.433Z,5.40
2023-11-21T04:48:02.383Z,5.40
2023-11-21T04:50:30.324Z,5.40
2023-11-21T04:52:58.305Z,5.40
2023-11-21T04:55:29.123Z,5.30
2023-11-21T04:57:57.119Z,5.30
2023-11-21T05:00:26.524Z,5.30
2023-11-21T05:02:54.767Z,5.30
2023-11-21T05:05:23.518Z,5.20
2023-11-21T05:07:51.558Z,5.20
2023-11-21T05:10:19.720Z,5.20
2023-11-21T05:12:47.766Z,5.20
2023-11-21T05:15:18.321Z,5.20
2023-11-21T05:17:50.734Z,5.30
2023-11-21T05:20:22.085Z,5.20
2023-11-21T05:22:50.501Z,5.20
2023-11-21T05:25:19.510Z,5.20
2023-11-21T05:27:47.699Z,5.00
2023-11-21T05:30:16.310Z,5.10
2023-11-21T05:32:44.617Z,5.10
2023-11-21T05:35:16.859Z,5.20
2023-11-21T05:37:45.499Z,4.90
2023-11-21T05:40:14.214Z,4.80
2023-11-21T05:42:42.611Z,4.80
2023-11-21T05:45:12.040Z,4.70
2023-11-21T05:47:41.863Z,4.80
2023-11-21T05:50:13.178Z,4.90
2023-11-21T05:52:43.406Z,5.00
2023-11-21T05:55:11.876Z,5.00
2023-11-21T05:57:41.383Z,5.00
2023-11-21T06:00:16.567Z,5.10
2023-11-21T06:02:44.601Z,5.20
2023-11-21T06:05:12.694Z,5.10
2023-11-21T06:07:42.249Z,5.10
2023-11-21T06:10:12.304Z,5.10
2023-11-21T06:12:41.475Z,5.00
2023-11-21T06:15:13.237Z,5.10
2023-11-21T06:17:41.658Z,5.10
2023-11-21T06:20:14.978Z,5.10
2023-11-21T06:22:45.381Z,5.10
2023-11-21T06:25:15.051Z,5.10
2023-11-21T06:27:45.801Z,5.10
2023-11-21T06:30:15.255Z,5.10
2023-11-21T06:32:46.934Z,5.10
2023-11-21T06:35:16.662Z,4.90
2023-11-21T06:37:49.591Z,4.90
2023-11-21T06:40:19.668Z,5.10
2023-11-21T06:42:48.118Z,5.10
2023-11-21T06:45:16.410Z,5.00
2023-11-21T06:47:45.066Z,5.10
2023-11-21T06:50:13.393Z,5.20
2023-11-21T06:52:41.382Z,5.20
2023-11-21T06:55:11.931Z,5.20
2023-11-21T06:57:40.246Z,5.20
2023-11-21T07:00:10.290Z,5.20
2023-11-21T07:02:39.386Z,5.20
2023-11-21T07:05:08.094Z,5.20
2023-11-21T07:07:36.800Z,5.30
2023-11-21T07:10:06.825Z,5.20
2023-11-21T07:12:36.319Z,5.20
2023-11-21T07:15:06.513Z,5.20
2023-11-21T07:17:35.241Z,5.20
2023-11-21T07:20:04.167Z,5.30
2023-11-21T07:22:32.239Z,5.30
2023-11-21T07:25:00.280Z,5.00
2023-11-21T07:27:28.318Z,4.80
2023-11-21T07:29:58.686Z,4.70
2023-11-21T07:32:29.518Z,4.80
2023-11-21T07:34:59.412Z,4.90
2023-11-21T07:37:29.825Z,4.90
2023-11-21T07:39:58.467Z,5.10
2023-11-21T07:42:28.356Z,5.10
2023-11-21T07:44:57.620Z,4.90
2023-11-21T07:47:28.835Z,4.90
2023-11-21T07:49:58.087Z,5.00
2023-11-21T07:52:26.079Z,5.00
2023-11-21T07:54:53.993Z,4.90
2023-11-21T07:57:21.907Z,4.90
2023-11-21T07:59:49.841Z,4.90
2023-11-21T08:02:19.361Z,4.90
2023-11-21T08:04:50.436Z,5.00
2023-11-21T08:07:19.321Z,5.10
2023-11-21T08:09:48.937Z,5.20
2023-11-21T08:12:17.009Z,5.30
2023-11-21T08:14:45.610Z,5.30
2023-11-21T08:17:15.209Z,5.40
2023-11-21T08:19:44.642Z,5.40
2023-11-21T08:22:12.674Z,5.50
2023-11-21T08:24:40.687Z,5.50
2023-11-21T08:27:08.713Z,5.30
2023-11-21T08:29:37.350Z,5.20
2023-11-21T08:32:06.546Z,5.10
2023-11-21T08:34:34.812Z,5.10
2023-11-21T08:37:04.366Z,5.20
2023-11-21T08:39:32.518Z,5.30
2023-11-21T08:42:00.418Z,5.30
2023-11-21T08:44:28.380Z,5.30
2023-11-21T08:46:56.309Z,5.30
2023-11-21T08:49:24.329Z,5.30
2023-11-21T08:51:52.258Z,5.30
2023-11-21T08:54:22.093Z,5.30
2023-11-21T08:56:51.191Z,5.30
2023-11-21T08:59:19.141Z,5.30
2023-11-21T09:01:47.722Z,5.30
2023-11-21T09:04:15.667Z,5.50
2023-11-21T09:06:43.604Z,5.60
2023-11-21T09:09:12.214Z,5.60
2023-11-21T09:11:41.486Z,5.60
2023-11-21T09:14:09.923Z,5.70
2023-11-21T09:16:38.049Z,5.80
2023-11-21T09:19:06.639Z,5.90
2023-11-21T09:21:35.478Z,5.90
2023-11-21T09:24:03.992Z,5.90
2023-11-21T09:26:31.914Z,5.90
2023-11-21T09:29:01.207Z,5.90
2023-11-21T09:31:29.194Z,5.80
2023-11-21T09:33:58.403Z,5.80
2023-11-21T09:36:28.953Z,5.80
2023-11-21T09:38:56.969Z,5.90
2023-11-21T09:41:36.152Z,5.90
2023-11-21T09:44:08.688Z,6.00
2023-11-21T09:46:40.657Z,6.10
2023-11-21T09:49:13.738Z,6.20
2023-11-21T09:51:44.320Z,6.20
2023-11-21T09:54:12.974Z,6.30
2023-11-21T09:56:40.924Z,6.30
2023-11-21T09:59:16.663Z,6.40
2023-11-21T10:01:45.161Z,6.50
2023-11-21T10:04:13.843Z,6.50
2023-11-21T10:06:43.270Z,6.60
2023-11-21T10:09:13.039Z,6.60
2023-11-21T10:11:43.295Z,6.70
2023-11-21T10:14:14.964Z,6.70
2023-11-21T10:16:44.879Z,6.80
2023-11-21T10:19:17.299Z,6.90
2023-11-21T10:21:45.372Z,7.00
2023-11-21T10:24:13.594Z,7.20
2023-11-21T10:26:48.197Z,7.20
2023-11-21T10:29:23.592Z,7.30
2023-11-21T10:31:52.666Z,7.30
2023-11-21T10:34:22.541Z,7.40
2023-11-21T10:36:50.859Z,7.50
2023-11-21T10:39:20.244Z,7.50
2023-11-21T10:41:49.347Z,7.60
2023-11-21T10:44:22.304Z,7.60
2023-11-21T10:46:57.021Z,7.60
2023-11-21T10:49:27.029Z,7.70
2023-11-21T10:51:56.948Z,7.70
2023-11-21T10:54:26.550Z,7.70
2023-11-21T10:56:59.857Z,7.70
2023-11-21T10:59:32.055Z,7.80
2023-11-21T11:02:05.443Z,7.90
2023-11-21T11:04:34.429Z,7.90
2023-11-21T11:07:06.407Z,8.00
2023-11-21T11:09:35.711Z,8.00
2023-11-21T11:12:05.509Z,8.10
2023-11-21T11:14:34.544Z,8.20
2023-11-21T11:17:06.990Z,8.20
2023-11-21T11:19:36.411Z,8.30
2023-11-21T11:22:14.702Z,8.30
2023-11-21T11:25:16.121Z,8.40
2023-11-21T11:28:00.548Z,8.40
2023-11-21T11:30:42.764Z,8.50
2023-11-21T11:33:26.941Z,8.50
2023-11-21T11:36:04.248Z,8.50
2023-11-21T11:38:34.414Z,8.60
2023-11-21T11:41:05.850Z,8.60
2023-11-21T11:43:41.175Z,8.70
2023-11-21T11:46:09.357Z,8.80
2023-11-21T11:48:41.298Z,8.70
2023-11-21T11:51:15.262Z,8.80
2023-11-21T11:53:44.175Z,8.80
2023-11-21T11:56:26.687Z,8.90
2023-11-21T11:58:56.777Z,8.90
2023-11-21T12:01:26.824Z,8.90
2023-11-21T12:04:32.683Z,9.00
2023-11-21T12:07:04.723Z,9.00
2023-11-21T12:09:34.180Z,9.10
2023-11-21T12:12:03.168Z,9.10
2023-11-21T12:14:32.607Z,9.10
2023-11-21T12:17:01.028Z,9.10
2023-11-21T12:19:30.568Z,9.10
2023-11-21T12:21:58.603Z,9.20
2023-11-21T12:24:27.062Z,9.20
2023-11-21T12:26:55.014Z,9.20
2023-11-21T12:29:22.978Z,9.20
2023-11-21T12:31:52.161Z,9.10
2023-11-21T12:34:20.240Z,9.10
2023-11-21T12:36:50.420Z,9.10
2023-11-21T12:39:18.460Z,9.10
2023-11-21T12:41:46.705Z,9.10
2023-11-21T12:44:16.599Z,9.10
2023-11-21T12:46:46.843Z,9.10
2023-11-21T12:49:18.517Z,9.20
2023-11-21T12:51:49.101Z,9.20
2023-11-21T12:54:17.156Z,9.20
2023-11-21T12:56:49.873Z,9.20
2023-11-21T12:59:19.311Z,9.20
2023-11-21T13:01:48.186Z,9.20
2023-11-21T13:04:16.162Z,9.20
2023-11-21T13:06:44.099Z,9.20
2023-11-21T13:09:17.619Z,9.30
2023-11-21T13:11:46.660Z,9.30
2023-11-21T13:14:15.560Z,9.30
2023-11-21T13:16:47.685Z,9.30
2023-11-21T13:19:16.015Z,9.40
2023-11-21T13:21:44.899Z,9.40
2023-11-21T13:24:15.535Z,9.40
2023-11-21T13:26:43.657Z,9.40
2023-11-21T13:29:14.043Z,9.40
2023-11-21T13:31:43.163Z,9.40
2023-11-21T13:34:18.346Z,9.40
2023-11-21T13:36:49.185Z,9.40
2023-11-21T13:39:20.290Z,9.40
2023-11-21T13:41:50.271Z,9.30
2023-11-21T13:44:27.962Z,9.30
2023-11-21T13:46:58.193Z,9.30
2023-11-21T13:49:27.652Z,9.30
2023-11-21T13:51:56.455Z,9.20
2023-11-21T13:54:26.648Z,9.20
2023-11-21T13:56:56.014Z,9.20
2023-11-21T13:59:26.360Z,9.20
2023-11-21T14:01:59.068Z,9.20
2023-11-21T14:04:47.948Z,9.30
2023-11-21T14:07:27.857Z,9.20
2023-11-21T14:09:57.214Z,9.20
2023-11-21T14:12:26.625Z,9.20
2023-11-21T14:14:56.117Z,9.20
2023-11-21T14:17:25.575Z,9.20
2023-11-21T14:19:53.812Z,9.10
2023-11-21T14:22:22.242Z,9.10
2023-11-21T14:24:51.382Z,9.00
2023-11-21T14:27:20.738Z,9.00
2023-11-21T14:29:49.664Z,9.00
2023-11-21T14:32:18.481Z,8.90
2023-11-21T14:34:48.478Z,8.90
2023-11-21T14:37:16.577Z,8.90
2023-11-21T14:39:49.011Z,8.80
2023-11-21T14:42:17.149Z,8.90
2023-11-21T14:44:46.461Z,8.80
2023-11-21T14:47:17.540Z,8.80
2023-11-21T14:49:54.024Z,8.80
2023-11-21T14:52:35.045Z,8.70
2023-11-21T14:55:27.355Z,8.70
2023-11-21T14:57:55.315Z,8.70
2023-11-21T15:00:43.206Z,8.60
2023-11-21T15:03:11.277Z,8.60
2023-11-21T15:05:40.960Z,8.60
2023-11-21T15:08:21.394Z,8.60
2023-11-21T15:10:54.405Z,8.60
2023-11-21T15:13:23.041Z,8.60
2023-11-21T15:15:55.125Z,8.60
2023-11-21T15:18:23.382Z,8.50
2023-11-21T15:20:51.422Z,8.50
2023-11-21T15:23:20.395Z,8.50
2023-11-21T15:25:48.535Z,8.50
2023-11-21T15:28:18.448Z,8.50
2023-11-21T15:30:49.126Z,8.50
2023-11-21T15:33:18.576Z,8.50
2023-11-21T15:35:46.513Z,8.50
2023-11-21T15:38:15.057Z,8.50
2023-11-21T15:40:44.393Z,8.50
2023-11-21T15:43:12.519Z,8.50
2023-11-21T15:45:40.598Z,8.50
2023-11-21T15:48:10.693Z,8.40
2023-11-21T15:50:40.016Z,8.50
2023-11-21T15:53:08.337Z,8.50
2023-11-21T15:55:37.501Z,8.50
2023-11-21T15:58:07.743Z,8.50
2023-11-21T16:00:36.401Z,8.40
2023-11-21T16:03:04.936Z,8.40
2023-11-21T16:05:32.924Z,8.40
2023-11-21T16:08:02.499Z,8.40
2023-11-21T16:10:30.535Z,8.40
2023-11-21T16:12:58.698Z,8.40
2023-11-21T16:15:27.374Z,8.40
2023-11-21T16:17:55.533Z,8.40
2023-11-21T16:20:23.762Z,8.30
2023-11-21T16:22:51.734Z,8.30
2023-11-21T16:25:21.182Z,8.30
2023-11-21T16:27:49.194Z,8.30
2023-11-21T16:30:25.826Z,8.30
2023-11-21T16:32:55.896Z,8.30
2023-11-21T16:35:23.956Z,8.30
2023-11-21T16:37:51.914Z,8.20
2023-11-21T16:40:21.254Z,8.20
2023-11-21T16:42:49.871Z,8.20
2023-11-21T16:45:17.900Z,8.20
2023-11-21T16:47:46.496Z,8.10
2023-11-21T16:50:14.674Z,8.10
2023-11-21T16:52:44.466Z,8.00
2023-11-21T16:55:13.359Z,8.00
2023-11-21T16:57:42.647Z,8.00
2023-11-21T17:00:13.147Z,8.00
2023-11-21T17:02:42.116Z,7.90
2023-11-21T17:05:10.676Z,7.90
2023-11-21T17:07:38.630Z,7.90
2023-11-21T17:10:10.373Z,7.90
2023-11-21T17:12:38.604Z,7.90
2023-11-21T17:15:09.975Z,7.90
2023-11-21T17:17:38.189Z,7.80
2023-11-21T17:20:10.212Z,7.80
2023-11-21T17:22:38.166Z,7.90
2023-11-21T17:25:07.350Z,7.90
2023-11-21T17:27:35.335Z,7.80
2023-11-21T17:30:03.499Z,7.80
2023-11-21T17:32:32.874Z,7.80
2023-11-21T17:35:01.344Z,7.70
2023-11-21T17:37:29.284Z,7.70
2023-11-21T17:39:57.297Z,7.60
2023-11-21T17:42:25.243Z,7.60
2023-11-21T17:44:53.204Z,7.60
2023-11-21T17:47:26.385Z,7.60
2023-11-21T17:49:55.754Z,7.50
2023-11-21T17:52:25.334Z,7.50
2023-11-21T17:54:53.359Z,7.50
2023-11-21T17:57:21.313Z,7.40
2023-11-21T17:59:51.732Z,7.40
2023-11-21T18:02:20.556Z,7.40
2023-11-21T18:04:48.584Z,7.40
2023-11-21T18:07:18.697Z,7.40
2023-11-21T18:09:46.673Z,7.40
2023-11-21T18:12:14.621Z,7.40
2023-11-21T18:14:44.095Z,7.30
2023-11-21T18:17:12.092Z,7.30
2023-11-21T18:19:40.062Z,7.30
2023-11-21T18:22:14.009Z,7.20
2023-11-21T18:24:51.762Z,7.20
2023-11-21T18:27:21.645Z,7.20
2023-11-21T18:29:50.229Z,7.20
2023-11-21T18:32:18.285Z,7.20
2023-11-21T18:34:47.134Z,7.10
2023-11-21T18:37:15.146Z,7.10
2023-11-21T18:39:46.342Z,7.10
2023-11-21T18:42:14.748Z,7.00
2023-11-21T18:44:52.206Z,6.90
2023-11-21T18:47:27.329Z,6.90
2023-11-21T18:49:56.023Z,6.90
2023-11-21T18:52:28.835Z,6.80
2023-11-21T18:54:59.005Z,6.80
2023-11-21T18:57:29.096Z,6.80
2023-11-21T18:59:58.110Z,6.80
2023-11-21T19:02:28.189Z,6.70
2023-11-21T19:04:56.407Z,6.70
2023-11-21T19:07:26.074Z,6.70
2023-11-21T19:09:57.014Z,6.70
2023-11-21T19:12:26.321Z,6.70
2023-11-21T19:14:54.267Z,6.70
2023-11-21T19:17:23.398Z,6.70
2023-11-21T19:19:51.443Z,6.70
2023-11-21T19:22:20.284Z,6.70
2023-11-21T19:24:48.988Z,6.60
2023-11-21T19:27:16.967Z,6.70
2023-11-21T19:29:46.633Z,6.70
2023-11-21T19:32:15.353Z,6.70
2023-11-21T19:34:43.904Z,6.70
2023-11-21T19:37:12.081Z,6.60
2023-11-21T19:39:40.041Z,6.60
2023-11-21T19:42:08.691Z,6.60
2023-11-21T19:44:38.201Z,6.60
2023-11-21T19:47:07.954Z,6.60
2023-11-21T19:49:35.959Z,6.50
2023-11-21T19:52:04.116Z,6.50
2023-11-21T19:54:32.528Z,6.40
2023-11-21T19:57:04.869Z,6.40
2023-11-21T19:59:32.943Z,6.40
2023-11-21T20:02:01.328Z,6.50
2023-11-21T20:04:31.199Z,6.40
2023-11-21T20:06:59.276Z,6.30
2023-11-21T20:09:27.244Z,6.30
2023-11-21T20:11:59.344Z,6.30
2023-11-21T20:14:29.953Z,6.40
2023-11-21T20:16:59.675Z,6.40
2023-11-21T20:19:28.090Z,6.40
2023-11-21T20:21:58.299Z,6.30
2023-11-21T20:24:26.236Z,6.40
2023-11-21T20:26:54.381Z,6.40
2023-11-21T20:29:23.783Z,6.30
2023-11-21T20:31:51.960Z,6.30
2023-11-21T20:34:21.195Z,6.40
2023-11-21T20:36:50.404Z,6.30
2023-11-21T20:39:21.342Z,6.30
2023-11-21T20:41:49.443Z,6.40
2023-11-21T20:44:18.068Z,6.30
2023-11-21T20:46:47.239Z,6.30
2023-11-21T20:49:16.386Z,6.20
2023-11-21T20:51:47.159Z,6.30
2023-11-21T20:54:15.124Z,6.20
2023-11-21T20:56:44.652Z,6.20
2023-11-21T20:59:12.619Z,6.00
2023-11-21T21:01:40.814Z,6.10
2023-11-21T21:04:08.902Z,6.10
2023-11-21T21:06:40.468Z,6.10
2023-11-21T21:09:10.560Z,6.10
2023-11-21T21:11:39.981Z,6.10
2023-11-21T21:14:09.355Z,6.10
2023-11-21T21:16:42.826Z,6.10
2023-11-21T21:19:11.799Z,6.10
2023-11-21T21:21:39.747Z,6.10
2023-11-21T21:24:08.365Z,6.10
2023-11-21T21:26:36.441Z,6.10
2023-11-21T21:29:04.449Z,6.10
2023-11-21T21:31:34.893Z,6.10
2023-11-21T21:34:02.843Z,6.20
2023-11-21T21:36:32.938Z,6.00
2023-11-21T21:39:06.120Z,5.90
2023-11-21T21:41:34.380Z,6.00
2023-11-21T21:44:02.307Z,6.00
2023-11-21T21:46:30.261Z,6.00
2023-11-21T21:48:59.553Z,6.00
2023-11-21T21:51:27.513Z,5.90
2023-11-21T21:53:56.410Z,5.90
2023-11-21T21:56:24.489Z,5.90
2023-11-21T21:58:53.260Z,6.00
2023-11-21T22:01:21.302Z,5.90
2023-11-21T22:03:49.393Z,5.80
2023-11-21T22:06:18.838Z,5.90
2023-11-21T22:08:46.765Z,5.90
2023-11-21T22:11:14.759Z,5.90
2023-11-21T22:13:42.736Z,5.90
2023-11-21T22:16:13.136Z,5.80
2023-11-21T22:18:41.516Z,5.70
2023-11-21T22:21:10.258Z,5.70
2023-11-21T22:23:39.519Z,5.70
2023-11-21T22:26:08.208Z,5.70
2023-11-21T22:28:36.953Z,5.60
2023-11-21T22:31:04.879Z,5.60
2023-11-21T22:33:32.860Z,5.50
2023-11-21T22:36:02.147Z,5.50
2023-11-21T22:38:31.061Z,5.50
2023-11-21T22:41:00.430Z,5.50
2023-11-21T22:43:28.425Z,5.40
2023-11-21T22:45:56.419Z,5.50
2023-11-21T22:48:24.444Z,5.50
2023-11-21T22:50:52.519Z,5.40
2023-11-21T22:53:20.483Z,5.20
2023-11-21T22:55:48.616Z,5.00
2023-11-21T22:58:17.908Z,5.10
2023-11-21T23:00:47.022Z,5.10
2023-11-21T23:03:15.342Z,5.20
2023-11-21T23:05:43.483Z,5.30
2023-11-21T23:08:12.032Z,5.30
2023-11-21T23:10:40.390Z,5.20
2023-11-21T23:13:09.409Z,5.00
2023-11-21T23:15:38.783Z,4.80
2023-11-21T23:18:09.722Z,4.90
2023-11-21T23:20:37.833Z,5.00
2023-11-21T23:23:05.895Z,5.10
2023-11-21T23:25:33.971Z,4.90
2023-11-21T23:28:02.309Z,4.80
2023-11-21T23:30:30.766Z,4.90
2023-11-21T23:33:00.280Z,5.00
2023-11-21T23:35:28.393Z,5.10
2023-11-21T23:37:56.356Z,5.10
2023-11-21T23:40:24.302Z,5.20
2023-11-21T23:42:52.304Z,5.20
2023-11-21T23:45:20.574Z,5.30
2023-11-21T23:47:48.591Z,5.20
2023-11-21T23:50:18.193Z,5.20
2023-11-21T23:52:46.257Z,5.30
2023-11-21T23:55:14.570Z,5.20
2023-11-21T23:57:42.836Z,5.10
